sensor_id;sensor_type;location;lat;lon;timestamp;temperature;humidity
29255;DHT22;16277;48.890;2.306;2023-07-13T00:13:14;22.50;82.20
29255;DHT22;16277;48.890;2.306;2023-07-13T00:28:20;22.80;82.90
29255;DHT22;16277;48.890;2.306;2023-07-13T00:43:27;23.20;82.10
29255;DHT22;16277;48.890;2.306;2023-07-13T00:58:33;22.70;83.80
29255;DHT22;16277;48.890;2.306;2023-07-13T01:13:39;22.50;85.00
29255;DHT22;16277;48.890;2.306;2023-07-13T01:28:43;22.00;86.30
29255;DHT22;16277;48.890;2.306;2023-07-13T01:43:48;21.80;87.30
29255;DHT22;16277;48.890;2.306;2023-07-13T01:58:53;21.80;87.10
29255;DHT22;16277;48.890;2.306;2023-07-13T02:13:58;21.60;86.10
29255;DHT22;16277;48.890;2.306;2023-07-13T02:29:02;22.00;84.80
29255;DHT22;16277;48.890;2.306;2023-07-13T02:44:06;21.50;84.70
29255;DHT22;16277;48.890;2.306;2023-07-13T02:59:11;21.40;84.70
29255;DHT22;16277;48.890;2.306;2023-07-13T03:14:16;21.10;85.40
29255;DHT22;16277;48.890;2.306;2023-07-13T03:29:21;21.00;86.40
29255;DHT22;16277;48.890;2.306;2023-07-13T03:44:26;21.00;87.20
29255;DHT22;16277;48.890;2.306;2023-07-13T03:59:33;21.90;85.00
29255;DHT22;16277;48.890;2.306;2023-07-13T04:14:38;21.40;88.30
29255;DHT22;16277;48.890;2.306;2023-07-13T04:29:42;21.60;88.00
29255;DHT22;16277;48.890;2.306;2023-07-13T04:44:49;21.40;89.80
29255;DHT22;16277;48.890;2.306;2023-07-13T04:59:53;20.60;91.50
29255;DHT22;16277;48.890;2.306;2023-07-13T05:14:58;20.10;93.70
29255;DHT22;16277;48.890;2.306;2023-07-13T05:30:04;20.90;92.70
29255;DHT22;16277;48.890;2.306;2023-07-13T05:45:10;20.70;93.00
29255;DHT22;16277;48.890;2.306;2023-07-13T06:00:15;20.80;92.70
29255;DHT22;16277;48.890;2.306;2023-07-13T06:15:20;20.60;92.50
29255;DHT22;16277;48.890;2.306;2023-07-13T06:30:24;20.70;92.70
29255;DHT22;16277;48.890;2.306;2023-07-13T06:45:29;21.10;92.50
29255;DHT22;16277;48.890;2.306;2023-07-13T07:00:33;20.60;93.10
29255;DHT22;16277;48.890;2.306;2023-07-13T07:15:39;20.70;94.70
29255;DHT22;16277;48.890;2.306;2023-07-13T07:30:44;21.10;94.20
29255;DHT22;16277;48.890;2.306;2023-07-13T07:45:51;20.90;94.40
29255;DHT22;16277;48.890;2.306;2023-07-13T08:01:03;20.60;95.80
29255;DHT22;16277;48.890;2.306;2023-07-13T08:16:11;21.40;94.70
29255;DHT22;16277;48.890;2.306;2023-07-13T08:31:15;21.40;94.70
29255;DHT22;16277;48.890;2.306;2023-07-13T08:46:24;21.90;94.00
29255;DHT22;16277;48.890;2.306;2023-07-13T09:01:42;22.10;92.40
29255;DHT22;16277;48.890;2.306;2023-07-13T09:16:51;22.30;90.80
29255;DHT22;16277;48.890;2.306;2023-07-13T09:31:58;22.40;90.20
29255;DHT22;16277;48.890;2.306;2023-07-13T09:47:15;22.30;90.00
29255;DHT22;16277;48.890;2.306;2023-07-13T10:02:29;22.40;88.30
29255;DHT22;16277;48.890;2.306;2023-07-13T10:17:36;22.20;88.90
29255;DHT22;16277;48.890;2.306;2023-07-13T10:32:40;22.40;88.10
29255;DHT22;16277;48.890;2.306;2023-07-13T10:47:45;22.60;88.40
29255;DHT22;16277;48.890;2.306;2023-07-13T11:02:58;22.30;89.40
29255;DHT22;16277;48.890;2.306;2023-07-13T11:18:12;22.80;88.50
29255;DHT22;16277;48.890;2.306;2023-07-13T11:33:24;23.00;88.00
29255;DHT22;16277;48.890;2.306;2023-07-13T11:48:33;23.10;86.20
29255;DHT22;16277;48.890;2.306;2023-07-13T12:03:41;23.50;83.70
29255;DHT22;16277;48.890;2.306;2023-07-13T12:18:46;23.30;80.80
29255;DHT22;16277;48.890;2.306;2023-07-13T12:33:57;24.00;75.60
29255;DHT22;16277;48.890;2.306;2023-07-13T12:49:05;24.20;74.00
29255;DHT22;16277;48.890;2.306;2023-07-13T13:04:21;24.00;70.80
29255;DHT22;16277;48.890;2.306;2023-07-13T13:19:28;24.10;70.00
29255;DHT22;16277;48.890;2.306;2023-07-13T13:34:34;24.40;70.10
29255;DHT22;16277;48.890;2.306;2023-07-13T13:49:38;25.00;69.00
29255;DHT22;16277;48.890;2.306;2023-07-13T14:04:43;25.10;67.80
29255;DHT22;16277;48.890;2.306;2023-07-13T14:19:48;25.90;65.80
29255;DHT22;16277;48.890;2.306;2023-07-13T14:34:54;25.70;66.00
29255;DHT22;16277;48.890;2.306;2023-07-13T14:49:59;25.10;67.70
29255;DHT22;16277;48.890;2.306;2023-07-13T15:05:13;25.10;68.90
29255;DHT22;16277;48.890;2.306;2023-07-13T15:20:21;24.80;69.30
29255;DHT22;16277;48.890;2.306;2023-07-13T15:35:28;24.90;69.90
29255;DHT22;16277;48.890;2.306;2023-07-13T15:50:42;24.80;70.70
29255;DHT22;16277;48.890;2.306;2023-07-13T16:05:47;24.90;71.00
29255;DHT22;16277;48.890;2.306;2023-07-13T16:20:52;24.80;71.10
29255;DHT22;16277;48.890;2.306;2023-07-13T16:36:00;24.60;72.00
29255;DHT22;16277;48.890;2.306;2023-07-13T16:51:05;24.80;72.20
29255;DHT22;16277;48.890;2.306;2023-07-13T17:06:21;24.40;72.50
29255;DHT22;16277;48.890;2.306;2023-07-13T17:21:27;24.30;72.30
29255;DHT22;16277;48.890;2.306;2023-07-13T17:36:31;24.20;76.00
29255;DHT22;16277;48.890;2.306;2023-07-13T17:51:37;24.30;76.20
29255;DHT22;16277;48.890;2.306;2023-07-13T18:06:45;24.30;77.10
29255;DHT22;16277;48.890;2.306;2023-07-13T18:21:56;24.80;74.30
29255;DHT22;16277;48.890;2.306;2023-07-13T18:37:00;24.60;73.00
29255;DHT22;16277;48.890;2.306;2023-07-13T18:52:15;24.40;72.80
29255;DHT22;16277;48.890;2.306;2023-07-13T19:07:22;24.30;72.70
29255;DHT22;16277;48.890;2.306;2023-07-13T19:22:26;23.90;73.10
29255;DHT22;16277;48.890;2.306;2023-07-13T19:37:31;23.80;74.90
29255;DHT22;16277;48.890;2.306;2023-07-13T19:52:41;23.80;77.50
29255;DHT22;16277;48.890;2.306;2023-07-13T20:07:54;23.80;79.10
29255;DHT22;16277;48.890;2.306;2023-07-13T20:23:00;23.30;80.90
29255;DHT22;16277;48.890;2.306;2023-07-13T20:38:05;23.70;80.40
29255;DHT22;16277;48.890;2.306;2023-07-13T20:53:10;23.60;81.10
29255;DHT22;16277;48.890;2.306;2023-07-13T21:08:17;24.00;80.40
29255;DHT22;16277;48.890;2.306;2023-07-13T21:23:30;24.10;80.40
29255;DHT22;16277;48.890;2.306;2023-07-13T21:38:37;23.60;81.90
29255;DHT22;16277;48.890;2.306;2023-07-13T21:53:43;23.90;81.90
29255;DHT22;16277;48.890;2.306;2023-07-13T22:08:48;24.00;81.60
29255;DHT22;16277;48.890;2.306;2023-07-13T22:23:52;23.80;82.20
29255;DHT22;16277;48.890;2.306;2023-07-13T22:38:57;24.00;81.70
29255;DHT22;16277;48.890;2.306;2023-07-13T22:54:01;23.60;82.80
29255;DHT22;16277;48.890;2.306;2023-07-13T23:09:13;23.10;84.60
29255;DHT22;16277;48.890;2.306;2023-07-13T23:24:18;23.20;85.20
29255;DHT22;16277;48.890;2.306;2023-07-13T23:39:23;23.70;83.70
29255;DHT22;16277;48.890;2.306;2023-07-13T23:54:29;23.40;84.40
